sensor_id;sensor_type;location;lat;lon;timestamp;pressure;altitude;pressure_sealevel;temperature;humidity
20630;BME280;17386;43.846;25.950;2023-07-31T00:02:17;100541.28;;;25.92;nan
20630;BME280;17386;43.846;25.950;2023-07-31T00:04:43;100547.22;;;25.88;nan
20630;BME280;17386;43.846;25.950;2023-07-31T00:07:11;100555.75;;;25.93;nan
20630;BME280;17386;43.846;25.950;2023-07-31T00:09:38;100559.97;;;25.87;nan
20630;BME280;17386;43.846;25.950;2023-07-31T00:12:04;100561.28;;;25.83;nan
20630;BME280;17386;43.846;25.950;2023-07-31T00:14:30;100552.50;;;25.89;nan
20630;BME280;17386;43.846;25.950;2023-07-31T00:16:57;100541.13;;;25.94;nan
20630;BME280;17386;43.846;25.950;2023-07-31T00:19:24;100536.84;;;25.91;nan
20630;BME280;17386;43.846;25.950;2023-07-31T00:21:51;100553.88;;;25.94;nan
20630;BME280;17386;43.846;25.950;2023-07-31T00:24:17;100556.75;;;25.92;nan
20630;BME280;17386;43.846;25.950;2023-07-31T00:26:44;100557.44;;;25.94;nan
20630;BME280;17386;43.846;25.950;2023-07-31T00:29:11;100532.44;;;25.90;nan
20630;BME280;17386;43.846;25.950;2023-07-31T00:31:37;100548.94;;;25.89;nan
20630;BME280;17386;43.846;25.950;2023-07-31T00:34:04;100560.88;;;25.96;nan
20630;BME280;17386;43.846;25.950;2023-07-31T00:36:30;100561.75;;;25.97;nan
20630;BME280;17386;43.846;25.950;2023-07-31T00:38:57;100557.25;;;25.87;nan
20630;BME280;17386;43.846;25.950;2023-07-31T00:41:24;100550.88;;;25.79;nan
20630;BME280;17386;43.846;25.950;2023-07-31T00:43:50;100554.34;;;25.71;nan
20630;BME280;17386;43.846;25.950;2023-07-31T00:46:17;100557.69;;;25.65;nan
20630;BME280;17386;43.846;25.950;2023-07-31T00:48:43;100561.19;;;25.57;nan
20630;BME280;17386;43.846;25.950;2023-07-31T00:51:10;100547.44;;;25.59;nan
20630;BME280;17386;43.846;25.950;2023-07-31T00:53:37;100542.00;;;25.59;nan
20630;BME280;17386;43.846;25.950;2023-07-31T00:56:05;100551.56;;;25.63;nan
20630;BME280;17386;43.846;25.950;2023-07-31T00:58:32;100556.78;;;25.56;nan
20630;BME280;17386;43.846;25.950;2023-07-31T01:00:59;100546.34;;;25.52;nan
20630;BME280;17386;43.846;25.950;2023-07-31T01:03:26;100541.84;;;25.43;nan
20630;BME280;17386;43.846;25.950;2023-07-31T01:09:07;100540.38;;;25.30;nan
20630;BME280;17386;43.846;25.950;2023-07-31T01:11:48;100531.91;;;25.16;nan
20630;BME280;17386;43.846;25.950;2023-07-31T01:14:17;100534.09;;;25.02;nan
20630;BME280;17386;43.846;25.950;2023-07-31T01:16:44;100520.69;;;25.01;nan
20630;BME280;17386;43.846;25.950;2023-07-31T01:19:11;100537.59;;;24.95;nan
20630;BME280;17386;43.846;25.950;2023-07-31T01:27:14;100523.69;;;24.70;nan
20630;BME280;17386;43.846;25.950;2023-07-31T01:29:48;100515.34;;;24.54;nan
20630;BME280;17386;43.846;25.950;2023-07-31T01:32:17;100513.75;;;24.61;nan
20630;BME280;17386;43.846;25.950;2023-07-31T01:34:45;100516.47;;;24.61;nan
20630;BME280;17386;43.846;25.950;2023-07-31T01:37:12;100519.09;;;24.53;nan
20630;BME280;17386;43.846;25.950;2023-07-31T01:39:39;100521.38;;;24.48;nan
20630;BME280;17386;43.846;25.950;2023-07-31T01:42:06;100534.53;;;24.43;nan
20630;BME280;17386;43.846;25.950;2023-07-31T01:44:34;100541.00;;;24.32;nan
20630;BME280;17386;43.846;25.950;2023-07-31T01:47:01;100547.34;;;24.13;nan
20630;BME280;17386;43.846;25.950;2023-07-31T01:49:27;100560.19;;;24.01;nan
20630;BME280;17386;43.846;25.950;2023-07-31T01:51:54;100564.38;;;23.86;nan
20630;BME280;17386;43.846;25.950;2023-07-31T01:54:21;100566.94;;;23.59;nan
20630;BME280;17386;43.846;25.950;2023-07-31T01:56:47;100569.63;;;23.20;nan
20630;BME280;17386;43.846;25.950;2023-07-31T01:59:14;100567.03;;;22.99;nan
20630;BME280;17386;43.846;25.950;2023-07-31T02:01:40;100568.34;;;22.84;nan
20630;BME280;17386;43.846;25.950;2023-07-31T02:04:07;100581.47;;;22.79;nan
20630;BME280;17386;43.846;25.950;2023-07-31T02:06:34;100571.19;;;22.73;nan
20630;BME280;17386;43.846;25.950;2023-07-31T02:09:00;100573.56;;;22.66;nan
20630;BME280;17386;43.846;25.950;2023-07-31T02:11:27;100576.91;;;22.49;nan
20630;BME280;17386;43.846;25.950;2023-07-31T02:13:54;100584.31;;;22.47;nan
20630;BME280;17386;43.846;25.950;2023-07-31T02:16:19;100584.00;;;22.40;nan
20630;BME280;17386;43.846;25.950;2023-07-31T02:18:46;100584.53;;;22.34;nan
20630;BME280;17386;43.846;25.950;2023-07-31T02:21:13;100590.47;;;22.28;nan
20630;BME280;17386;43.846;25.950;2023-07-31T02:23:39;100591.75;;;22.24;nan
20630;BME280;17386;43.846;25.950;2023-07-31T02:26:06;100593.97;;;22.19;nan
20630;BME280;17386;43.846;25.950;2023-07-31T02:28:33;100591.94;;;22.11;nan
20630;BME280;17386;43.846;25.950;2023-07-31T02:30:59;100603.88;;;22.08;nan
20630;BME280;17386;43.846;25.950;2023-07-31T02:33:26;100601.41;;;22.05;nan
20630;BME280;17386;43.846;25.950;2023-07-31T02:35:52;100617.88;;;22.02;nan
20630;BME280;17386;43.846;25.950;2023-07-31T02:38:19;100613.97;;;21.95;nan
20630;BME280;17386;43.846;25.950;2023-07-31T02:40:45;100627.41;;;21.97;nan
20630;BME280;17386;43.846;25.950;2023-07-31T02:43:12;100625.78;;;21.94;nan
20630;BME280;17386;43.846;25.950;2023-07-31T02:45:39;100625.22;;;21.91;nan
20630;BME280;17386;43.846;25.950;2023-07-31T02:48:04;100616.50;;;21.87;nan
20630;BME280;17386;43.846;25.950;2023-07-31T02:50:32;100611.81;;;21.89;nan
20630;BME280;17386;43.846;25.950;2023-07-31T02:52:59;100622.63;;;21.89;nan
20630;BME280;17386;43.846;25.950;2023-07-31T02:55:25;100612.41;;;21.93;nan
20630;BME280;17386;43.846;25.950;2023-07-31T02:57:52;100617.69;;;21.94;nan
20630;BME280;17386;43.846;25.950;2023-07-31T03:00:19;100614.84;;;21.96;nan
20630;BME280;17386;43.846;25.950;2023-07-31T03:02:44;100611.19;;;21.97;nan
20630;BME280;17386;43.846;25.950;2023-07-31T03:05:11;100618.28;;;21.98;nan
20630;BME280;17386;43.846;25.950;2023-07-31T03:07:37;100618.28;;;21.98;nan
20630;BME280;17386;43.846;25.950;2023-07-31T03:10:04;100624.56;;;21.98;nan
20630;BME280;17386;43.846;25.950;2023-07-31T03:12:31;100614.72;;;21.97;nan
20630;BME280;17386;43.846;25.950;2023-07-31T03:14:58;100603.50;;;22.02;nan
20630;BME280;17386;43.846;25.950;2023-07-31T03:17:24;100608.91;;;22.02;nan
20630;BME280;17386;43.846;25.950;2023-07-31T03:19:51;100606.72;;;21.96;nan
20630;BME280;17386;43.846;25.950;2023-07-31T03:22:17;100623.56;;;21.99;nan
20630;BME280;17386;43.846;25.950;2023-07-31T03:24:44;100618.72;;;22.03;nan
20630;BME280;17386;43.846;25.950;2023-07-31T03:27:11;100627.47;;;22.06;nan
20630;BME280;17386;43.846;25.950;2023-07-31T03:29:37;100617.28;;;22.10;nan
20630;BME280;17386;43.846;25.950;2023-07-31T03:32:04;100626.69;;;22.16;nan
20630;BME280;17386;43.846;25.950;2023-07-31T03:34:31;100620.19;;;22.18;nan
20630;BME280;17386;43.846;25.950;2023-07-31T03:36:58;100622.28;;;22.15;nan
20630;BME280;17386;43.846;25.950;2023-07-31T03:39:25;100617.72;;;22.15;nan
20630;BME280;17386;43.846;25.950;2023-07-31T03:41:52;100616.72;;;22.16;nan
20630;BME280;17386;43.846;25.950;2023-07-31T03:44:19;100614.63;;;22.20;nan
20630;BME280;17386;43.846;25.950;2023-07-31T03:46:45;100612.63;;;22.22;nan
20630;BME280;17386;43.846;25.950;2023-07-31T03:49:12;100609.78;;;22.23;nan
20630;BME280;17386;43.846;25.950;2023-07-31T03:51:39;100611.53;;;22.24;nan
20630;BME280;17386;43.846;25.950;2023-07-31T03:54:05;100612.25;;;22.26;nan
20630;BME280;17386;43.846;25.950;2023-07-31T03:56:33;100615.53;;;22.30;nan
20630;BME280;17386;43.846;25.950;2023-07-31T03:59:00;100612.31;;;22.36;nan
20630;BME280;17386;43.846;25.950;2023-07-31T04:01:27;100617.72;;;22.36;nan
20630;BME280;17386;43.846;25.950;2023-07-31T04:03:53;100623.13;;;22.36;nan
20630;BME280;17386;43.846;25.950;2023-07-31T04:06:20;100621.41;;;22.35;nan
20630;BME280;17386;43.846;25.950;2023-07-31T04:08:45;100631.13;;;22.37;nan
20630;BME280;17386;43.846;25.950;2023-07-31T04:11:11;100646.06;;;22.32;nan
20630;BME280;17386;43.846;25.950;2023-07-31T04:13:39;100632.44;;;22.43;nan
20630;BME280;17386;43.846;25.950;2023-07-31T04:16:06;100633.28;;;22.44;nan
20630;BME280;17386;43.846;25.950;2023-07-31T04:18:32;100642.34;;;22.54;nan
20630;BME280;17386;43.846;25.950;2023-07-31T04:20:59;100642.66;;;22.60;nan
20630;BME280;17386;43.846;25.950;2023-07-31T04:23:26;100643.69;;;22.69;nan
20630;BME280;17386;43.846;25.950;2023-07-31T04:25:51;100645.00;;;22.75;nan
20630;BME280;17386;43.846;25.950;2023-07-31T04:28:17;100648.16;;;22.80;nan
20630;BME280;17386;43.846;25.950;2023-07-31T04:30:43;100641.34;;;22.85;nan
20630;BME280;17386;43.846;25.950;2023-07-31T04:33:10;100641.28;;;22.76;nan
20630;BME280;17386;43.846;25.950;2023-07-31T04:35:35;100637.34;;;22.80;nan
20630;BME280;17386;43.846;25.950;2023-07-31T04:38:02;100658.16;;;22.79;nan
20630;BME280;17386;43.846;25.950;2023-07-31T04:40:27;100645.88;;;22.85;nan
20630;BME280;17386;43.846;25.950;2023-07-31T04:42:54;100656.72;;;22.85;nan
20630;BME280;17386;43.846;25.950;2023-07-31T04:45:21;100653.06;;;22.86;nan
20630;BME280;17386;43.846;25.950;2023-07-31T04:47:46;100663.47;;;22.90;nan
20630;BME280;17386;43.846;25.950;2023-07-31T04:50:12;100658.06;;;22.90;nan
20630;BME280;17386;43.846;25.950;2023-07-31T04:52:39;100661.38;;;22.94;nan
20630;BME280;17386;43.846;25.950;2023-07-31T04:55:04;100660.53;;;22.93;nan
20630;BME280;17386;43.846;25.950;2023-07-31T04:57:30;100655.41;;;23.00;nan
20630;BME280;17386;43.846;25.950;2023-07-31T04:59:56;100651.09;;;22.98;nan
20630;BME280;17386;43.846;25.950;2023-07-31T05:02:23;100662.41;;;23.03;nan
20630;BME280;17386;43.846;25.950;2023-07-31T05:04:49;100659.97;;;23.00;nan
20630;BME280;17386;43.846;25.950;2023-07-31T05:07:16;100652.97;;;22.97;nan
20630;BME280;17386;43.846;25.950;2023-07-31T05:09:43;100666.25;;;23.00;nan
20630;BME280;17386;43.846;25.950;2023-07-31T05:12:10;100665.13;;;23.03;nan
20630;BME280;17386;43.846;25.950;2023-07-31T05:14:37;100665.97;;;23.03;nan
20630;BME280;17386;43.846;25.950;2023-07-31T05:17:05;100663.13;;;23.05;nan
20630;BME280;17386;43.846;25.950;2023-07-31T05:19:32;100670.25;;;23.06;nan
20630;BME280;17386;43.846;25.950;2023-07-31T05:21:57;100672.94;;;23.06;nan
20630;BME280;17386;43.846;25.950;2023-07-31T05:24:23;100673.56;;;23.09;nan
20630;BME280;17386;43.846;25.950;2023-07-31T05:26:48;100665.13;;;23.12;nan
20630;BME280;17386;43.846;25.950;2023-07-31T05:29:13;100661.47;;;23.23;nan
20630;BME280;17386;43.846;25.950;2023-07-31T05:31:39;100668.59;;;23.24;nan
20630;BME280;17386;43.846;25.950;2023-07-31T05:34:04;100666.59;;;23.26;nan
20630;BME280;17386;43.846;25.950;2023-07-31T05:36:30;100683.75;;;23.27;nan
20630;BME280;17386;43.846;25.950;2023-07-31T05:38:55;100675.34;;;23.30;nan
20630;BME280;17386;43.846;25.950;2023-07-31T05:41:21;100676.72;;;23.24;nan
20630;BME280;17386;43.846;25.950;2023-07-31T05:43:48;100684.88;;;23.24;nan
20630;BME280;17386;43.846;25.950;2023-07-31T05:46:16;100684.47;;;23.29;nan
20630;BME280;17386;43.846;25.950;2023-07-31T05:48:42;100683.91;;;23.35;nan
20630;BME280;17386;43.846;25.950;2023-07-31T05:51:09;100682.50;;;23.40;nan
20630;BME280;17386;43.846;25.950;2023-07-31T05:53:36;100682.06;;;23.45;nan
20630;BME280;17386;43.846;25.950;2023-07-31T05:56:06;100693.22;;;23.52;nan
20630;BME280;17386;43.846;25.950;2023-07-31T05:58:32;100692.81;;;23.56;nan
20630;BME280;17386;43.846;25.950;2023-07-31T06:01:01;100696.72;;;23.63;nan
20630;BME280;17386;43.846;25.950;2023-07-31T06:03:27;100700.72;;;23.69;nan
20630;BME280;17386;43.846;25.950;2023-07-31T06:05:54;100710.28;;;23.73;nan
20630;BME280;17386;43.846;25.950;2023-07-31T06:08:21;100702.72;;;23.77;nan
20630;BME280;17386;43.846;25.950;2023-07-31T06:10:47;100711.56;;;23.79;nan
20630;BME280;17386;43.846;25.950;2023-07-31T06:13:13;100707.84;;;23.80;nan
20630;BME280;17386;43.846;25.950;2023-07-31T06:15:39;100709.56;;;23.61;nan
20630;BME280;17386;43.846;25.950;2023-07-31T06:18:06;100700.94;;;23.56;nan
20630;BME280;17386;43.846;25.950;2023-07-31T06:20:33;100712.28;;;23.61;nan
20630;BME280;17386;43.846;25.950;2023-07-31T06:23:01;100706.16;;;23.69;nan
20630;BME280;17386;43.846;25.950;2023-07-31T06:25:27;100701.72;;;23.68;nan
20630;BME280;17386;43.846;25.950;2023-07-31T06:27:53;100705.78;;;23.53;nan
20630;BME280;17386;43.846;25.950;2023-07-31T06:30:20;100717.28;;;23.35;nan
20630;BME280;17386;43.846;25.950;2023-07-31T06:32:47;100723.84;;;23.33;nan
20630;BME280;17386;43.846;25.950;2023-07-31T06:35:12;100730.22;;;23.22;nan
20630;BME280;17386;43.846;25.950;2023-07-31T06:37:38;100721.59;;;23.07;nan
20630;BME280;17386;43.846;25.950;2023-07-31T06:40:07;100723.22;;;23.19;nan
20630;BME280;17386;43.846;25.950;2023-07-31T06:42:35;100726.50;;;23.23;nan
20630;BME280;17386;43.846;25.950;2023-07-31T06:45:04;100725.69;;;23.32;nan
20630;BME280;17386;43.846;25.950;2023-07-31T06:47:30;100717.00;;;23.29;nan
20630;BME280;17386;43.846;25.950;2023-07-31T06:49:55;100724.44;;;23.36;nan
20630;BME280;17386;43.846;25.950;2023-07-31T06:52:23;100717.00;;;23.38;nan
20630;BME280;17386;43.846;25.950;2023-07-31T06:55:01;100722.28;;;23.40;nan
20630;BME280;17386;43.846;25.950;2023-07-31T06:57:29;100727.69;;;23.40;nan
20630;BME280;17386;43.846;25.950;2023-07-31T06:59:56;100725.69;;;23.32;nan
20630;BME280;17386;43.846;25.950;2023-07-31T07:02:22;100719.84;;;23.27;nan
20630;BME280;17386;43.846;25.950;2023-07-31T07:04:49;100712.81;;;23.25;nan
20630;BME280;17386;43.846;25.950;2023-07-31T07:07:16;100714.09;;;23.20;nan
20630;BME280;17386;43.846;25.950;2023-07-31T07:09:42;100714.81;;;23.23;nan
20630;BME280;17386;43.846;25.950;2023-07-31T07:12:09;100724.75;;;23.12;nan
20630;BME280;17386;43.846;25.950;2023-07-31T07:14:36;100723.19;;;23.10;nan
20630;BME280;17386;43.846;25.950;2023-07-31T07:17:03;100736.72;;;23.10;nan
20630;BME280;17386;43.846;25.950;2023-07-31T07:19:30;100741.00;;;23.12;nan
20630;BME280;17386;43.846;25.950;2023-07-31T07:21:57;100753.69;;;23.12;nan
20630;BME280;17386;43.846;25.950;2023-07-31T07:24:23;100754.88;;;23.19;nan
20630;BME280;17386;43.846;25.950;2023-07-31T07:26:50;100751.06;;;23.22;nan
20630;BME280;17386;43.846;25.950;2023-07-31T07:29:17;100749.66;;;23.27;nan
20630;BME280;17386;43.846;25.950;2023-07-31T07:31:43;100744.09;;;23.29;nan
20630;BME280;17386;43.846;25.950;2023-07-31T07:34:10;100749.69;;;23.37;nan
20630;BME280;17386;43.846;25.950;2023-07-31T07:36:36;100759.28;;;23.51;nan
20630;BME280;17386;43.846;25.950;2023-07-31T07:39:04;100757.72;;;23.48;nan
20630;BME280;17386;43.846;25.950;2023-07-31T07:41:31;100757.03;;;23.56;nan
20630;BME280;17386;43.846;25.950;2023-07-31T07:43:58;100760.53;;;23.46;nan
20630;BME280;17386;43.846;25.950;2023-07-31T07:46:25;100761.44;;;23.47;nan
20630;BME280;17386;43.846;25.950;2023-07-31T07:48:52;100754.72;;;23.51;nan
20630;BME280;17386;43.846;25.950;2023-07-31T07:51:20;100757.59;;;23.59;nan
20630;BME280;17386;43.846;25.950;2023-07-31T07:53:45;100758.78;;;23.66;nan
20630;BME280;17386;43.846;25.950;2023-07-31T07:56:12;100771.34;;;23.67;nan
20630;BME280;17386;43.846;25.950;2023-07-31T07:58:39;100773.25;;;23.77;nan
20630;BME280;17386;43.846;25.950;2023-07-31T08:01:04;100779.53;;;23.87;nan
20630;BME280;17386;43.846;25.950;2023-07-31T08:03:29;100767.81;;;23.77;nan
20630;BME280;17386;43.846;25.950;2023-07-31T08:06:01;100773.41;;;23.85;nan
20630;BME280;17386;43.846;25.950;2023-07-31T08:08:27;100775.41;;;23.92;nan
20630;BME280;17386;43.846;25.950;2023-07-31T08:10:54;100785.28;;;23.93;nan
20630;BME280;17386;43.846;25.950;2023-07-31T08:13:21;100788.84;;;23.94;nan
20630;BME280;17386;43.846;25.950;2023-07-31T08:15:46;100792.41;;;23.85;nan
20630;BME280;17386;43.846;25.950;2023-07-31T08:18:12;100789.53;;;23.86;nan
20630;BME280;17386;43.846;25.950;2023-07-31T08:20:37;100797.13;;;23.83;nan
20630;BME280;17386;43.846;25.950;2023-07-31T08:23:03;100788.13;;;23.82;nan
20630;BME280;17386;43.846;25.950;2023-07-31T08:25:29;100793.53;;;23.82;nan
20630;BME280;17386;43.846;25.950;2023-07-31T08:27:56;100791.81;;;23.81;nan
20630;BME280;17386;43.846;25.950;2023-07-31T08:30:23;100780.53;;;23.86;nan
20630;BME280;17386;43.846;25.950;2023-07-31T08:32:50;100786.13;;;23.94;nan
20630;BME280;17386;43.846;25.950;2023-07-31T08:35:17;100781.00;;;24.00;nan
20630;BME280;17386;43.846;25.950;2023-07-31T08:37:42;100779.59;;;24.06;nan
20630;BME280;17386;43.846;25.950;2023-07-31T08:40:08;100774.88;;;24.18;nan
20630;BME280;17386;43.846;25.950;2023-07-31T08:42:33;100778.16;;;24.21;nan
20630;BME280;17386;43.846;25.950;2023-07-31T08:44:59;100780.03;;;24.31;nan
20630;BME280;17386;43.846;25.950;2023-07-31T08:47:27;100774.63;;;24.40;nan
20630;BME280;17386;43.846;25.950;2023-07-31T08:49:54;100784.91;;;24.56;nan
20630;BME280;17386;43.846;25.950;2023-07-31T08:52:20;100796.91;;;24.63;nan
20630;BME280;17386;43.846;25.950;2023-07-31T08:54:45;100798.50;;;24.66;nan
20630;BME280;17386;43.846;25.950;2023-07-31T08:57:12;100799.91;;;24.70;nan
20630;BME280;17386;43.846;25.950;2023-07-31T08:59:40;100807.34;;;24.68;nan
20630;BME280;17386;43.846;25.950;2023-07-31T09:02:08;100805.06;;;24.63;nan
20630;BME280;17386;43.846;25.950;2023-07-31T09:04:34;100804.50;;;24.69;nan
20630;BME280;17386;43.846;25.950;2023-07-31T09:07:01;100810.22;;;24.66;nan
20630;BME280;17386;43.846;25.950;2023-07-31T09:09:31;100806.53;;;24.58;nan
20630;BME280;17386;43.846;25.950;2023-07-31T09:11:58;100802.50;;;24.52;nan
20630;BME280;17386;43.846;25.950;2023-07-31T09:14:25;100808.50;;;24.65;nan
20630;BME280;17386;43.846;25.950;2023-07-31T09:16:59;100814.66;;;24.67;nan
20630;BME280;17386;43.846;25.950;2023-07-31T09:19:35;100815.50;;;24.77;nan
20630;BME280;17386;43.846;25.950;2023-07-31T09:22:07;100797.47;;;24.76;nan
20630;BME280;17386;43.846;25.950;2023-07-31T09:24:33;100805.63;;;24.86;nan
20630;BME280;17386;43.846;25.950;2023-07-31T09:27:01;100771.63;;;24.72;nan
20630;BME280;17386;43.846;25.950;2023-07-31T09:29:28;100781.06;;;24.78;nan
20630;BME280;17386;43.846;25.950;2023-07-31T09:31:55;100806.03;;;25.01;nan
20630;BME280;17386;43.846;25.950;2023-07-31T09:34:30;100802.91;;;25.05;nan
20630;BME280;17386;43.846;25.950;2023-07-31T09:36:58;100802.88;;;25.15;nan
20630;BME280;17386;43.846;25.950;2023-07-31T09:39:26;100800.69;;;25.28;nan
20630;BME280;17386;43.846;25.950;2023-07-31T09:41:56;100791.19;;;25.42;nan
20630;BME280;17386;43.846;25.950;2023-07-31T09:44:43;100796.84;;;25.58;nan
20630;BME280;17386;43.846;25.950;2023-07-31T09:47:22;100802.84;;;25.62;nan
20630;BME280;17386;43.846;25.950;2023-07-31T09:49:49;100804.81;;;25.70;nan
20630;BME280;17386;43.846;25.950;2023-07-31T09:52:15;100795.00;;;25.86;nan
20630;BME280;17386;43.846;25.950;2023-07-31T09:54:42;100802.97;;;25.98;nan
20630;BME280;17386;43.846;25.950;2023-07-31T09:57:10;100803.56;;;25.91;nan
20630;BME280;17386;43.846;25.950;2023-07-31T09:59:37;100807.31;;;25.90;nan
20630;BME280;17386;43.846;25.950;2023-07-31T10:02:03;100806.84;;;25.68;nan
20630;BME280;17386;43.846;25.950;2023-07-31T10:04:31;100804.19;;;25.85;nan
20630;BME280;17386;43.846;25.950;2023-07-31T10:06:59;100805.00;;;25.96;nan
20630;BME280;17386;43.846;25.950;2023-07-31T10:09:28;100802.34;;;26.04;nan
20630;BME280;17386;43.846;25.950;2023-07-31T10:11:59;100804.06;;;26.05;nan
20630;BME280;17386;43.846;25.950;2023-07-31T10:14:27;100804.63;;;26.08;nan
20630;BME280;17386;43.846;25.950;2023-07-31T10:16:54;100778.50;;;26.15;nan
20630;BME280;17386;43.846;25.950;2023-07-31T10:19:22;100798.06;;;26.64;nan
20630;BME280;17386;43.846;25.950;2023-07-31T10:21:49;100805.78;;;26.95;nan
20630;BME280;17386;43.846;25.950;2023-07-31T10:24:16;100809.34;;;27.39;nan
20630;BME280;17386;43.846;25.950;2023-07-31T10:26:45;100798.97;;;27.77;nan
20630;BME280;17386;43.846;25.950;2023-07-31T10:29:15;100798.31;;;27.91;nan
20630;BME280;17386;43.846;25.950;2023-07-31T10:31:43;100802.97;;;27.99;nan
20630;BME280;17386;43.846;25.950;2023-07-31T10:34:10;100797.22;;;28.18;nan
20630;BME280;17386;43.846;25.950;2023-07-31T10:36:36;100799.63;;;28.29;nan
20630;BME280;17386;43.846;25.950;2023-07-31T10:39:03;100795.00;;;28.30;nan
20630;BME280;17386;43.846;25.950;2023-07-31T10:41:31;100799.13;;;28.34;nan
20630;BME280;17386;43.846;25.950;2023-07-31T10:44:01;100801.53;;;28.53;nan
20630;BME280;17386;43.846;25.950;2023-07-31T10:46:28;100786.84;;;28.46;nan
20630;BME280;17386;43.846;25.950;2023-07-31T10:49:06;100790.97;;;28.42;nan
20630;BME280;17386;43.846;25.950;2023-07-31T10:51:37;100779.13;;;28.25;nan
20630;BME280;17386;43.846;25.950;2023-07-31T10:54:16;100789.28;;;28.57;nan
20630;BME280;17386;43.846;25.950;2023-07-31T10:56:45;100785.81;;;28.88;nan
20630;BME280;17386;43.846;25.950;2023-07-31T10:59:13;100775.97;;;29.51;nan
20630;BME280;17386;43.846;25.950;2023-07-31T11:01:55;100762.78;;;29.93;nan
20630;BME280;17386;43.846;25.950;2023-07-31T11:04:43;100757.31;;;29.93;nan
20630;BME280;17386;43.846;25.950;2023-07-31T11:07:10;100757.16;;;29.48;nan
20630;BME280;17386;43.846;25.950;2023-07-31T11:09:41;100744.59;;;29.22;nan
20630;BME280;17386;43.846;25.950;2023-07-31T11:12:07;100751.16;;;28.97;nan
20630;BME280;17386;43.846;25.950;2023-07-31T11:14:36;100748.25;;;28.90;nan
20630;BME280;17386;43.846;25.950;2023-07-31T11:17:07;100756.66;;;28.56;nan
20630;BME280;17386;43.846;25.950;2023-07-31T11:19:33;100754.53;;;28.25;nan
20630;BME280;17386;43.846;25.950;2023-07-31T11:22:01;100751.97;;;28.16;nan
20630;BME280;17386;43.846;25.950;2023-07-31T11:24:34;100750.28;;;28.23;nan
20630;BME280;17386;43.846;25.950;2023-07-31T11:27:07;100754.22;;;28.28;nan
20630;BME280;17386;43.846;25.950;2023-07-31T11:29:35;100747.00;;;27.95;nan
20630;BME280;17386;43.846;25.950;2023-07-31T11:32:15;100736.00;;;27.78;nan
20630;BME280;17386;43.846;25.950;2023-07-31T11:34:54;100744.06;;;27.80;nan
20630;BME280;17386;43.846;25.950;2023-07-31T11:37:22;100732.44;;;27.86;nan
20630;BME280;17386;43.846;25.950;2023-07-31T11:40:02;100737.56;;;27.81;nan
20630;BME280;17386;43.846;25.950;2023-07-31T11:42:30;100719.13;;;27.75;nan
20630;BME280;17386;43.846;25.950;2023-07-31T11:44:56;100722.88;;;27.74;nan
20630;BME280;17386;43.846;25.950;2023-07-31T11:47:25;100728.78;;;27.61;nan
20630;BME280;17386;43.846;25.950;2023-07-31T11:49:53;100725.31;;;27.51;nan
20630;BME280;17386;43.846;25.950;2023-07-31T11:52:19;100716.81;;;27.54;nan
20630;BME280;17386;43.846;25.950;2023-07-31T11:54:49;100721.81;;;27.67;nan
20630;BME280;17386;43.846;25.950;2023-07-31T11:57:18;100720.06;;;27.58;nan
20630;BME280;17386;43.846;25.950;2023-07-31T11:59:45;100713.88;;;27.39;nan
20630;BME280;17386;43.846;25.950;2023-07-31T12:02:13;100715.75;;;27.39;nan
20630;BME280;17386;43.846;25.950;2023-07-31T12:04:40;100716.25;;;27.42;nan
20630;BME280;17386;43.846;25.950;2023-07-31T12:07:07;100720.69;;;27.43;nan
20630;BME280;17386;43.846;25.950;2023-07-31T12:09:34;100712.75;;;27.24;nan
20630;BME280;17386;43.846;25.950;2023-07-31T12:11:59;100712.16;;;27.38;nan
20630;BME280;17386;43.846;25.950;2023-07-31T12:14:27;100723.59;;;27.50;nan
20630;BME280;17386;43.846;25.950;2023-07-31T12:17:09;100719.78;;;27.69;nan
20630;BME280;17386;43.846;25.950;2023-07-31T12:19:48;100709.00;;;27.59;nan
20630;BME280;17386;43.846;25.950;2023-07-31T12:22:16;100708.47;;;27.64;nan
20630;BME280;17386;43.846;25.950;2023-07-31T12:24:44;100705.78;;;27.72;nan
20630;BME280;17386;43.846;25.950;2023-07-31T12:27:14;100710.53;;;27.62;nan
20630;BME280;17386;43.846;25.950;2023-07-31T12:29:42;100706.81;;;27.71;nan
20630;BME280;17386;43.846;25.950;2023-07-31T12:34:47;100713.00;;;27.81;nan
20630;BME280;17386;43.846;25.950;2023-07-31T12:37:13;100725.81;;;27.97;nan
20630;BME280;17386;43.846;25.950;2023-07-31T12:39:39;100725.66;;;28.06;nan
20630;BME280;17386;43.846;25.950;2023-07-31T12:42:05;100726.53;;;28.15;nan
20630;BME280;17386;43.846;25.950;2023-07-31T12:44:31;100734.38;;;28.18;nan
20630;BME280;17386;43.846;25.950;2023-07-31T12:46:58;100729.09;;;28.17;nan
20630;BME280;17386;43.846;25.950;2023-07-31T12:49:24;100732.84;;;28.07;nan
20630;BME280;17386;43.846;25.950;2023-07-31T12:51:51;100718.47;;;27.97;nan
20630;BME280;17386;43.846;25.950;2023-07-31T12:54:20;100715.06;;;27.95;nan
20630;BME280;17386;43.846;25.950;2023-07-31T12:56:46;100713.38;;;27.94;nan
20630;BME280;17386;43.846;25.950;2023-07-31T12:59:12;100717.44;;;27.90;nan
20630;BME280;17386;43.846;25.950;2023-07-31T13:01:40;100710.59;;;27.86;nan
20630;BME280;17386;43.846;25.950;2023-07-31T13:04:06;100714.03;;;27.88;nan
20630;BME280;17386;43.846;25.950;2023-07-31T13:06:34;100707.06;;;27.94;nan
20630;BME280;17386;43.846;25.950;2023-07-31T13:09:00;100710.47;;;28.04;nan
20630;BME280;17386;43.846;25.950;2023-07-31T13:11:27;100700.09;;;28.07;nan
20630;BME280;17386;43.846;25.950;2023-07-31T13:13:53;100700.41;;;28.13;nan